Time;durP1;ratioP1;P1;durP2;ratioP2;P2;SDS_P1;SDS_P2;PMS_P1;PMS_P2;Temp;Humidity;BMP_temperature;BMP_pressure;BME280_temperature;BME280_humidity;BME280_pressure;Samples;Min_cycle;Max_cycle;Signal;HPM_P1;HPM_P2
2023/08/22 00:03:56;;;;;;;17.13;6.70;;;20.40;95.60;;;;;;4997964;23;20744;-79
2023/08/22 00:06:23;;;;;;;16.15;7.40;;;20.40;95.60;;;;;;4935832;28;20042;-79
2023/08/22 00:08:49;;;;;;;13.27;7.30;;;20.40;95.50;;;;;;4921873;29;20097;-80
2023/08/22 00:11:17;;;;;;;14.10;6.60;;;20.40;95.70;;;;;;4921683;29;20024;-87
2023/08/22 00:13:43;;;;;;;11.75;6.60;;;20.40;95.70;;;;;;4942946;28;20476;-88
2023/08/22 00:16:08;;;;;;;14.07;6.88;;;20.40;95.60;;;;;;4931920;29;20031;-88
2023/08/22 00:18:36;;;;;;;12.63;6.50;;;20.40;95.50;;;;;;4945780;28;20015;-88
2023/08/22 00:21:02;;;;;;;15.65;7.40;;;20.40;95.60;;;;;;4947689;28;20024;-87
2023/08/22 00:23:28;;;;;;;12.70;6.97;;;20.40;95.60;;;;;;4948323;28;20162;-88
2023/08/22 00:25:54;;;;;;;11.05;6.50;;;20.40;95.40;;;;;;4945326;28;20042;-87
2023/08/22 00:28:22;;;;;;;10.50;6.45;;;20.50;95.40;;;;;;4930417;29;20279;-87
2023/08/22 00:30:47;;;;;;;14.43;6.50;;;20.40;95.60;;;;;;4947431;28;20475;-88
2023/08/22 00:33:13;;;;;;;11.70;6.53;;;20.30;95.60;;;;;;4929942;29;20123;-87
2023/08/22 00:35:38;;;;;;;18.08;6.78;;;20.30;95.80;;;;;;4944945;28;20058;-83
2023/08/22 00:38:04;;;;;;;14.00;6.85;;;20.30;95.70;;;;;;4946000;28;20469;-88
2023/08/22 00:40:29;;;;;;;12.40;7.15;;;20.30;95.70;;;;;;4930598;29;20051;-86
2023/08/22 00:42:55;;;;;;;14.63;7.43;;;20.30;95.90;;;;;;4945095;28;20673;-88
2023/08/22 00:45:21;;;;;;;11.38;6.75;;;20.30;95.90;;;;;;4934244;29;20031;-87
2023/08/22 00:47:46;;;;;;;9.90;7.05;;;20.30;96.00;;;;;;4942614;28;20372;-87
2023/08/22 00:50:12;;;;;;;13.27;6.95;;;20.30;95.80;;;;;;4941729;28;20046;-87
2023/08/22 00:52:43;;;;;;;11.65;7.35;;;20.30;95.90;;;;;;4936218;29;20087;-89
2023/08/22 00:55:09;;;;;;;13.55;6.30;;;20.30;95.90;;;;;;4906325;29;20487;-88
2023/08/22 00:57:35;;;;;;;10.07;6.93;;;20.30;95.90;;;;;;4924430;29;20110;-88
2023/08/22 01:00:05;;;;;;;14.38;6.65;;;20.30;96.20;;;;;;4923354;29;20460;-87
2023/08/22 01:02:31;;;;;;;12.57;7.10;;;20.30;96.30;;;;;;4923815;29;20036;-86
2023/08/22 01:04:57;;;;;;;10.57;7.40;;;20.20;96.20;;;;;;4953753;28;20496;-87
2023/08/22 01:07:49;;;;;;;13.23;6.70;;;20.20;96.20;;;;;;4925156;29;20102;-87
2023/08/22 01:10:24;;;;;;;10.98;6.47;;;20.30;96.30;;;;;;4940779;28;20366;-87
2023/08/22 01:12:56;;;;;;;13.13;6.80;;;20.20;96.30;;;;;;4923767;29;20027;-87
2023/08/22 01:15:28;;;;;;;13.95;6.55;;;20.20;96.40;;;;;;4925768;29;20032;-87
2023/08/22 01:17:56;;;;;;;11.93;6.43;;;20.30;96.40;;;;;;4908060;29;20032;-86
2023/08/22 01:20:25;;;;;;;17.23;6.78;;;20.20;96.40;;;;;;4926815;29;20076;-87
2023/08/22 01:22:50;;;;;;;12.80;7.15;;;20.20;96.50;;;;;;4922587;29;20660;-86
2023/08/22 01:25:16;;;;;;;13.00;6.97;;;20.20;96.40;;;;;;4907156;29;20123;-87
2023/08/22 01:27:51;;;;;;;18.42;6.80;;;20.10;96.70;;;;;;4925081;29;20035;-87
2023/08/22 01:30:32;;;;;;;17.17;7.00;;;20.20;96.50;;;;;;4930530;28;21497;-88
2023/08/22 01:33:06;;;;;;;14.82;7.00;;;20.20;96.60;;;;;;4925526;29;20023;-86
2023/08/22 01:35:34;;;;;;;10.75;6.53;;;20.20;96.60;;;;;;4943626;28;20066;-87
2023/08/22 01:38:01;;;;;;;15.40;6.97;;;20.20;96.50;;;;;;4953582;28;20035;-86
2023/08/22 01:40:28;;;;;;;12.65;6.40;;;20.30;96.50;;;;;;4954575;28;20446;-86
2023/08/22 01:42:57;;;;;;;12.05;6.93;;;20.30;96.30;;;;;;4930247;29;20107;-88
2023/08/22 01:45:25;;;;;;;14.32;6.97;;;20.30;96.50;;;;;;4942864;28;20024;-87
2023/08/22 01:47:51;;;;;;;13.90;7.47;;;20.20;96.50;;;;;;4920810;29;20027;-87
2023/08/22 01:50:16;;;;;;;11.30;6.57;;;20.20;96.60;;;;;;4943503;28;20778;-86
2023/08/22 01:52:42;;;;;;;10.25;7.40;;;20.20;96.70;;;;;;4935718;28;20051;-86
2023/08/22 01:55:08;;;;;;;14.52;7.18;;;20.20;96.50;;;;;;4943634;28;20560;-87
2023/08/22 01:57:33;;;;;;;13.13;7.47;;;20.20;96.60;;;;;;4939828;28;20032;-86
2023/08/22 01:59:59;;;;;;;12.10;6.93;;;20.10;96.40;;;;;;4944518;28;20488;-87
2023/08/22 02:02:24;;;;;;;24.85;7.57;;;20.10;96.60;;;;;;4923047;29;20154;-85
2023/08/22 02:04:50;;;;;;;18.50;7.40;;;20.10;96.50;;;;;;4929701;28;20024;-87
2023/08/22 02:07:16;;;;;;;13.15;7.28;;;20.20;96.60;;;;;;4941264;28;20071;-86
2023/08/22 02:09:42;;;;;;;15.85;7.03;;;20.10;96.60;;;;;;4937872;28;20053;-86
2023/08/22 02:12:07;;;;;;;15.15;7.43;;;20.10;96.50;;;;;;4926001;28;20031;-87
2023/08/22 02:14:33;;;;;;;9.77;6.47;;;20.10;96.60;;;;;;4928690;29;20063;-86
2023/08/22 02:16:59;;;;;;;18.17;7.95;;;20.10;96.60;;;;;;4954335;28;20027;-87
2023/08/22 02:19:25;;;;;;;17.23;7.03;;;20.10;96.70;;;;;;4939020;28;20424;-87
2023/08/22 02:21:50;;;;;;;14.90;7.30;;;20.00;97.10;;;;;;4940617;29;20027;-87
2023/08/22 02:24:16;;;;;;;14.15;7.47;;;20.00;97.00;;;;;;4921102;28;20027;-88
2023/08/22 02:26:43;;;;;;;16.15;7.57;;;20.00;97.20;;;;;;4938756;28;20043;-87
2023/08/22 02:29:09;;;;;;;8.15;6.60;;;20.00;97.00;;;;;;4940881;28;20070;-86
2023/08/22 02:31:37;;;;;;;15.20;7.53;;;20.00;97.00;;;;;;4944257;28;20042;-86
2023/08/22 02:34:02;;;;;;;13.63;7.38;;;20.00;96.90;;;;;;4939242;28;20023;-87
2023/08/22 02:36:28;;;;;;;11.20;7.30;;;19.90;97.10;;;;;;4939766;28;20701;-88
2023/08/22 02:38:54;;;;;;;12.65;7.75;;;19.90;97.30;;;;;;4933667;29;20038;-86
2023/08/22 02:41:19;;;;;;;14.30;7.70;;;19.90;97.40;;;;;;4947361;28;20155;-88
2023/08/22 02:43:45;;;;;;;16.55;6.93;;;19.90;97.40;;;;;;4945323;28;20031;-86
2023/08/22 02:46:10;;;;;;;12.85;7.72;;;19.90;97.40;;;;;;4929580;29;20031;-87
2023/08/22 02:48:36;;;;;;;18.65;7.60;;;19.90;97.30;;;;;;4941719;28;20047;-89
2023/08/22 02:51:04;;;;;;;16.73;7.82;;;19.80;97.60;;;;;;4948604;28;20054;-87
2023/08/22 02:53:29;;;;;;;15.77;7.45;;;19.80;97.60;;;;;;4940420;28;20110;-86
2023/08/22 02:56:00;;;;;;;15.02;7.75;;;19.80;97.70;;;;;;4939770;28;20107;-87
2023/08/22 02:58:28;;;;;;;15.07;8.13;;;19.80;97.80;;;;;;4923818;28;20090;-88
2023/08/22 03:00:54;;;;;;;14.98;7.80;;;19.70;97.90;;;;;;4949994;28;20016;-89
2023/08/22 03:03:20;;;;;;;17.65;7.78;;;19.70;97.90;;;;;;4946309;29;20031;-87
2023/08/22 03:05:48;;;;;;;15.32;7.40;;;19.70;98.20;;;;;;4944579;28;20046;-88
2023/08/22 03:08:13;;;;;;;15.32;8.35;;;19.70;97.70;;;;;;4950702;28;20038;-88
2023/08/22 03:10:42;;;;;;;15.82;7.95;;;19.70;97.80;;;;;;4945454;28;20019;-88
2023/08/22 03:13:08;;;;;;;11.68;7.10;;;19.70;97.60;;;;;;4950295;29;20125;-88
2023/08/22 03:15:34;;;;;;;17.13;7.40;;;19.80;97.80;;;;;;4933983;28;20038;-86
2023/08/22 03:18:00;;;;;;;14.18;8.27;;;19.80;97.80;;;;;;4930476;29;20044;-78
2023/08/22 03:20:26;;;;;;;11.68;7.10;;;19.80;97.80;;;;;;4930553;29;20523;-80
2023/08/22 03:22:51;;;;;;;11.77;6.85;;;19.80;97.90;;;;;;4939193;28;20038;-79
2023/08/22 03:25:17;;;;;;;10.63;6.72;;;19.70;97.80;;;;;;4937456;28;20035;-79
2023/08/22 03:27:42;;;;;;;14.23;7.60;;;19.80;97.60;;;;;;4937722;28;20043;-80
2023/08/22 03:30:08;;;;;;;10.77;6.90;;;19.70;97.50;;;;;;4920462;28;20144;-80
2023/08/22 03:32:34;;;;;;;7.50;6.70;;;19.80;97.80;;;;;;4926587;29;20126;-80
2023/08/22 03:35:00;;;;;;;15.20;6.80;;;19.80;97.70;;;;;;4921716;28;20038;-80
2023/08/22 03:37:25;;;;;;;9.88;6.88;;;19.70;97.70;;;;;;4937827;28;20024;-79
2023/08/22 03:39:51;;;;;;;8.38;6.55;;;19.70;98.00;;;;;;4920200;29;20040;-80
2023/08/22 03:42:16;;;;;;;15.98;6.90;;;19.70;98.00;;;;;;4937255;28;20111;-79
2023/08/22 03:44:42;;;;;;;13.98;6.88;;;19.70;98.00;;;;;;4937588;28;20024;-78
2023/08/22 03:47:08;;;;;;;12.65;6.90;;;19.70;98.10;;;;;;4927350;29;20296;-79
2023/08/22 03:49:34;;;;;;;13.93;7.47;;;19.70;98.10;;;;;;4936478;28;20373;-79
2023/08/22 03:51:59;;;;;;;12.25;7.38;;;19.60;98.00;;;;;;4919752;29;20195;-80
2023/08/22 03:54:25;;;;;;;13.00;7.25;;;19.60;98.10;;;;;;4939309;28;20047;-79
2023/08/22 03:56:50;;;;;;;12.30;8.07;;;19.50;98.10;;;;;;4929915;28;20035;-80
2023/08/22 03:59:19;;;;;;;14.75;8.18;;;19.50;98.10;;;;;;4939618;28;20417;-79
2023/08/22 04:01:47;;;;;;;14.85;7.20;;;19.50;98.10;;;;;;4939045;28;20020;-79
2023/08/22 04:04:14;;;;;;;12.20;7.85;;;19.50;98.50;;;;;;4937776;28;20479;-80
2023/08/22 04:06:41;;;;;;;8.23;6.93;;;19.50;98.50;;;;;;4918620;29;20036;-80
2023/08/22 04:09:06;;;;;;;11.57;6.80;;;19.50;98.30;;;;;;4926703;29;20035;-80
2023/08/22 04:11:32;;;;;;;14.73;7.03;;;19.50;98.40;;;;;;4921174;28;20046;-79
2023/08/22 04:13:58;;;;;;;8.00;7.15;;;19.50;98.20;;;;;;4937135;28;20620;-79
2023/08/22 04:16:23;;;;;;;9.88;6.25;;;19.50;98.30;;;;;;4918322;29;20387;-79
2023/08/22 04:18:49;;;;;;;14.13;6.38;;;19.50;98.20;;;;;;4936147;28;20034;-79
2023/08/22 04:21:17;;;;;;;11.63;6.90;;;19.40;98.40;;;;;;4919370;29;20027;-80
2023/08/22 04:23:42;;;;;;;15.75;7.28;;;19.40;98.20;;;;;;4933804;28;20036;-79
2023/08/22 04:26:08;;;;;;;10.43;7.60;;;19.30;98.60;;;;;;4922129;29;20087;-80
2023/08/22 04:28:34;;;;;;;13.48;7.60;;;19.30;98.80;;;;;;4913975;28;20039;-79
2023/08/22 04:31:00;;;;;;;10.50;7.53;;;19.20;98.90;;;;;;4919672;28;20550;-80
2023/08/22 04:33:26;;;;;;;12.27;7.80;;;19.10;99.00;;;;;;4916426;29;20126;-80
2023/08/22 04:35:52;;;;;;;17.35;6.97;;;19.00;99.30;;;;;;4931143;28;20122;-79
2023/08/22 04:38:17;;;;;;;14.73;7.57;;;18.90;99.50;;;;;;4917920;28;20035;-79
2023/08/22 04:40:43;;;;;;;11.65;7.45;;;18.90;99.30;;;;;;4933672;28;20459;-79
2023/08/22 04:43:11;;;;;;;15.18;8.10;;;18.90;99.60;;;;;;4934843;28;20016;-80
2023/08/22 04:45:37;;;;;;;21.00;7.90;;;18.90;99.70;;;;;;4918239;28;20035;-80
2023/08/22 04:48:03;;;;;;;15.13;7.35;;;18.90;99.40;;;;;;4932171;28;20395;-79
2023/08/22 04:50:31;;;;;;;14.68;7.60;;;19.00;99.30;;;;;;4916049;29;20035;-79
2023/08/22 04:52:57;;;;;;;17.48;8.27;;;19.00;99.20;;;;;;4918621;29;20557;-80
2023/08/22 04:55:23;;;;;;;15.02;8.43;;;18.90;99.30;;;;;;4916856;29;20012;-80
2023/08/22 04:57:49;;;;;;;10.55;7.18;;;19.00;99.30;;;;;;4916629;28;20035;-78
2023/08/22 05:00:16;;;;;;;13.00;7.20;;;19.00;99.30;;;;;;4938760;28;20102;-79
2023/08/22 05:02:44;;;;;;;12.48;7.90;;;19.00;99.00;;;;;;4884379;29;1138814;-79
2023/08/22 05:05:10;;;;;;;14.57;7.35;;;19.00;99.30;;;;;;4942365;28;20476;-79
2023/08/22 05:07:37;;;;;;;13.43;8.07;;;19.00;99.40;;;;;;4943857;28;20070;-79
2023/08/22 05:10:03;;;;;;;25.52;8.45;;;19.00;99.50;;;;;;4925880;29;20036;-79
2023/08/22 05:12:30;;;;;;;13.55;7.25;;;19.00;99.30;;;;;;4941224;28;20631;-79
2023/08/22 05:14:57;;;;;;;16.30;7.82;;;18.90;99.30;;;;;;4940792;28;20403;-79
2023/08/22 05:17:23;;;;;;;10.38;7.43;;;18.90;99.70;;;;;;4942865;28;20027;-80
2023/08/22 05:19:51;;;;;;;21.55;7.57;;;18.90;99.70;;;;;;4941886;28;20159;-80
2023/08/22 05:22:16;;;;;;;12.30;6.80;;;18.80;99.60;;;;;;4929574;29;20020;-79
2023/08/22 05:24:42;;;;;;;11.68;7.90;;;18.80;99.80;;;;;;4941049;28;20140;-80
2023/08/22 05:27:07;;;;;;;16.60;7.50;;;18.80;99.90;;;;;;4928896;28;20484;-79
2023/08/22 05:29:33;;;;;;;10.45;7.18;;;18.70;99.90;;;;;;4933754;29;20059;-80
2023/08/22 05:31:58;;;;;;;9.90;7.65;;;18.80;99.90;;;;;;4946778;28;20070;-79
2023/08/22 05:34:24;;;;;;;14.10;7.22;;;18.80;99.90;;;;;;4942231;28;20083;-80
2023/08/22 05:36:50;;;;;;;13.55;7.13;;;18.90;99.90;;;;;;4942051;28;20487;-80
2023/08/22 05:39:17;;;;;;;10.85;7.43;;;18.90;99.90;;;;;;4924564;28;20122;-80
2023/08/22 05:41:43;;;;;;;11.52;7.72;;;19.00;99.90;;;;;;4942227;28;20074;-81
2023/08/22 05:44:09;;;;;;;13.15;7.93;;;19.10;99.80;;;;;;4940246;28;20079;-80
2023/08/22 05:46:34;;;;;;;15.68;8.73;;;19.10;99.70;;;;;;4939289;28;20029;-79
2023/08/22 05:49:00;;;;;;;15.90;9.10;;;19.10;99.90;;;;;;4942213;28;20036;-79
2023/08/22 05:51:25;;;;;;;16.55;8.88;;;19.10;99.90;;;;;;4941205;28;20365;-80
2023/08/22 05:53:51;;;;;;;14.32;8.70;;;19.10;99.90;;;;;;4924182;29;20032;-80
2023/08/22 05:56:17;;;;;;;20.90;7.90;;;19.20;99.80;;;;;;4931058;29;20028;-80
2023/08/22 05:58:42;;;;;;;15.00;8.57;;;19.30;99.70;;;;;;4920510;28;20110;-79
2023/08/22 06:01:15;;;;;;;13.15;9.52;;;19.40;99.60;;;;;;4945228;28;20566;-79
2023/08/22 06:03:40;;;;;;;16.05;9.07;;;19.50;99.40;;;;;;4939859;28;20101;-80
2023/08/22 06:06:06;;;;;;;16.40;10.18;;;19.60;99.30;;;;;;4921002;28;21166;-79
2023/08/22 06:08:32;;;;;;;11.52;8.27;;;19.60;99.40;;;;;;4942529;28;20046;-80
2023/08/22 06:10:57;;;;;;;16.40;11.15;;;19.70;99.40;;;;;;4919282;29;20118;-79
2023/08/22 06:13:23;;;;;;;20.65;10.77;;;19.70;99.30;;;;;;4922647;28;20118;-80
2023/08/22 06:15:49;;;;;;;21.63;11.10;;;19.70;99.40;;;;;;4937561;28;20023;-79
2023/08/22 06:18:14;;;;;;;20.90;10.80;;;19.70;99.30;;;;;;4926224;28;20059;-79
2023/08/22 06:20:40;;;;;;;18.33;11.02;;;19.80;99.20;;;;;;4941714;28;20032;-79
2023/08/22 06:23:06;;;;;;;25.17;11.65;;;19.90;98.90;;;;;;4937726;28;20028;-79
2023/08/22 06:25:37;;;;;;;26.13;11.52;;;20.10;98.30;;;;;;4921314;29;20030;-80
2023/08/22 06:28:02;;;;;;;20.20;10.68;;;20.20;98.00;;;;;;4925460;29;20415;-85
2023/08/22 06:30:28;;;;;;;14.45;11.07;;;20.30;98.20;;;;;;4937700;28;20024;-85
2023/08/22 06:32:56;;;;;;;19.48;10.10;;;20.30;98.10;;;;;;4921884;29;20031;-85
2023/08/22 06:35:21;;;;;;;21.17;10.25;;;20.40;98.30;;;;;;4933109;29;20119;-84
2023/08/22 06:37:47;;;;;;;18.05;9.65;;;20.50;98.30;;;;;;4922107;28;20083;-79
2023/08/22 06:40:13;;;;;;;19.90;9.13;;;20.60;98.10;;;;;;4925883;29;20023;-84
2023/08/22 06:45:08;;;;;;;21.17;9.25;;;20.80;98.10;;;;;;4940868;28;20147;-83
2023/08/22 06:47:34;;;;;;;17.08;9.55;;;20.80;98.10;;;;;;4947557;29;20081;-85
2023/08/22 06:50:03;;;;;;;16.65;9.27;;;20.90;97.90;;;;;;4929793;29;20047;-81
2023/08/22 06:52:28;;;;;;;14.50;8.60;;;21.00;97.50;;;;;;4931019;29;20030;-85
2023/08/22 06:55:03;;;;;;;15.27;8.52;;;21.10;97.50;;;;;;4947474;29;20020;-85
2023/08/22 06:57:29;;;;;;;18.35;9.30;;;21.20;97.00;;;;;;4931336;29;20024;-80
2023/08/22 06:59:54;;;;;;;18.70;8.05;;;21.30;97.20;;;;;;5086699;23;20049;-84
2023/08/22 07:02:20;;;;;;;19.40;8.93;;;21.50;97.00;;;;;;4941021;28;20376;-84
2023/08/22 07:04:46;;;;;;;15.50;8.32;;;21.50;97.00;;;;;;4946290;28;20030;-84
2023/08/22 07:07:14;;;;;;;15.02;8.27;;;21.60;96.80;;;;;;4948300;28;20476;-85
2023/08/22 07:09:39;;;;;;;23.98;9.20;;;21.70;96.80;;;;;;4951775;28;20044;-84
2023/08/22 07:12:05;;;;;;;10.30;8.23;;;21.80;97.00;;;;;;4945793;28;20035;-80
2023/08/22 07:14:30;;;;;;;15.73;8.30;;;21.90;96.80;;;;;;4947947;28;20391;-80
2023/08/22 07:16:56;;;;;;;16.02;7.85;;;22.00;96.50;;;;;;4947098;28;20103;-80
2023/08/22 07:19:21;;;;;;;14.63;7.80;;;22.10;96.10;;;;;;4946764;28;20101;-79
2023/08/22 07:21:47;;;;;;;12.32;8.30;;;22.10;96.40;;;;;;4949117;28;20114;-79
2023/08/22 07:24:14;;;;;;;304.45;147.02;;;22.20;96.30;;;;;;4946252;28;20031;-80
2023/08/22 07:26:40;;;;;;;32.28;15.13;;;22.30;96.20;;;;;;4946653;28;20031;-79
2023/08/22 07:29:05;;;;;;;12.88;7.40;;;22.40;96.40;;;;;;4948153;28;20510;-80
2023/08/22 07:31:31;;;;;;;18.55;8.80;;;22.40;96.20;;;;;;4941624;28;20039;-79
2023/08/22 07:33:59;;;;;;;15.50;8.02;;;22.50;96.40;;;;;;4946885;28;20035;-80
2023/08/22 07:36:24;;;;;;;13.48;7.93;;;22.60;96.20;;;;;;4947198;28;20398;-80
2023/08/22 07:38:50;;;;;;;12.82;7.78;;;22.70;96.10;;;;;;4945349;28;20030;-80
2023/08/22 07:41:20;;;;;;;11.13;7.80;;;22.80;95.90;;;;;;4945904;28;20030;-80
2023/08/22 07:43:46;;;;;;;12.25;7.05;;;23.00;95.70;;;;;;4943567;28;20031;-81
2023/08/22 07:46:11;;;;;;;16.73;6.28;;;23.10;94.40;;;;;;4945459;28;20077;-85
2023/08/22 07:48:37;;;;;;;10.88;6.40;;;23.20;93.50;;;;;;4939756;28;20094;-83
2023/08/22 07:51:03;;;;;;;165.05;75.65;;;23.20;93.80;;;;;;4945370;28;20030;-84
2023/08/22 07:53:28;;;;;;;11.02;5.45;;;23.20;93.40;;;;;;4945587;28;20031;-84
2023/08/22 07:55:54;;;;;;;21.67;10.10;;;23.40;93.90;;;;;;4947429;28;20027;-83
2023/08/22 07:58:20;;;;;;;11.02;4.95;;;23.40;92.80;;;;;;4942831;28;20034;-80
2023/08/22 08:00:49;;;;;;;8.45;5.15;;;23.50;92.30;;;;;;4947182;28;20093;-80
2023/08/22 08:03:14;;;;;;;9.23;4.72;;;23.60;92.90;;;;;;4946259;28;20064;-81
2023/08/22 08:05:40;;;;;;;10.05;4.95;;;23.70;91.80;;;;;;4939620;28;20388;-80
2023/08/22 08:08:05;;;;;;;16.02;5.30;;;23.80;92.30;;;;;;4943964;28;20039;-80
2023/08/22 08:10:33;;;;;;;7.85;6.03;;;23.80;92.40;;;;;;4947760;28;20024;-80
2023/08/22 08:13:01;;;;;;;13.88;5.45;;;24.00;91.80;;;;;;4946419;28;20027;-80
2023/08/22 08:15:30;;;;;;;6.45;3.83;;;24.10;91.80;;;;;;4946666;28;20027;-80
2023/08/22 08:17:58;;;;;;;9.75;4.47;;;24.00;91.00;;;;;;4948248;28;20027;-80
2023/08/22 08:20:24;;;;;;;7.05;3.70;;;23.80;90.60;;;;;;4946801;28;20027;-80
2023/08/22 08:22:55;;;;;;;8.52;3.63;;;24.10;90.30;;;;;;4946686;28;20023;-79
2023/08/22 08:25:20;;;;;;;5.55;2.33;;;23.90;88.60;;;;;;4945465;28;20126;-81
2023/08/22 08:27:49;;;;;;;3.67;1.73;;;23.90;85.60;;;;;;4947356;28;20106;-80
2023/08/22 08:30:15;;;;;;;5.45;2.20;;;24.10;84.00;;;;;;4944937;28;20070;-80
2023/08/22 08:32:41;;;;;;;4.28;1.92;;;24.50;84.90;;;;;;4944228;28;20031;-84
2023/08/22 08:35:07;;;;;;;7.97;2.92;;;24.60;83.20;;;;;;4948407;28;20101;-81
2023/08/22 08:37:35;;;;;;;50.00;19.55;;;24.80;84.20;;;;;;4949884;28;20392;-82
2023/08/22 08:40:00;;;;;;;7.80;2.83;;;24.90;85.20;;;;;;4946606;28;20035;-82
2023/08/22 08:42:28;;;;;;;8.05;2.80;;;25.00;82.70;;;;;;4951188;28;20035;-81
2023/08/22 08:44:56;;;;;;;4.88;2.00;;;25.20;83.10;;;;;;4946784;28;20460;-84
2023/08/22 08:47:22;;;;;;;4.70;2.50;;;25.20;83.80;;;;;;4947232;28;20027;-83
2023/08/22 08:49:47;;;;;;;5.90;2.22;;;25.30;82.60;;;;;;4948915;28;20114;-84
2023/08/22 08:52:15;;;;;;;5.00;2.35;;;25.40;82.90;;;;;;4947097;28;20389;-83
2023/08/22 08:54:41;;;;;;;10.32;3.25;;;25.60;83.20;;;;;;4947610;28;20472;-84
2023/08/22 08:57:08;;;;;;;6.03;3.35;;;25.50;80.20;;;;;;4940669;28;20023;-83
2023/08/22 08:59:36;;;;;;;7.72;3.70;;;25.50;81.00;;;;;;4949270;28;20035;-83
2023/08/22 09:02:05;;;;;;;9.05;3.20;;;25.50;82.50;;;;;;4948694;28;20142;-82
2023/08/22 09:04:31;;;;;;;6.13;3.20;;;25.40;83.20;;;;;;4948016;28;20039;-88
2023/08/22 09:06:56;;;;;;;7.50;2.70;;;25.50;83.70;;;;;;4948951;28;20057;-86
2023/08/22 09:09:24;;;;;;;6.38;3.63;;;25.60;83.60;;;;;;4952138;28;20023;-89
2023/08/22 09:11:50;;;;;;;8.75;3.20;;;25.30;83.20;;;;;;4949502;28;20023;-86
2023/08/22 09:14:24;;;;;;;9.27;3.85;;;25.40;84.30;;;;;;4943349;28;20031;-85
2023/08/22 09:16:52;;;;;;;8.13;4.43;;;25.40;84.30;;;;;;4942243;28;20031;-85
2023/08/22 09:19:18;;;;;;;12.10;4.80;;;25.00;84.40;;;;;;4949586;28;20027;-90
2023/08/22 09:22:02;;;;;;;9.02;4.95;;;25.00;84.70;;;;;;4954075;28;20020;-90
2023/08/22 09:24:31;;;;;;;18.08;5.35;;;25.10;86.30;;;;;;4947986;28;20443;-83
2023/08/22 09:26:57;;;;;;;10.60;4.68;;;25.10;85.70;;;;;;4948822;28;20039;-88
2023/08/22 09:29:32;;;;;;;9.60;5.10;;;25.10;85.30;;;;;;4951081;28;20122;-87
2023/08/22 09:32:03;;;;;;;8.23;5.03;;;25.10;86.50;;;;;;4951969;28;20102;-88
2023/08/22 09:34:29;;;;;;;11.05;4.80;;;24.80;86.30;;;;;;4950785;28;20027;-88
2023/08/22 09:36:54;;;;;;;12.93;4.70;;;24.90;86.00;;;;;;4950238;28;20083;-91
2023/08/22 09:39:22;;;;;;;7.90;4.20;;;25.00;84.20;;;;;;4951076;28;20035;-90
2023/08/22 09:41:55;;;;;;;8.40;5.38;;;25.10;83.90;;;;;;4957388;28;20086;-89
2023/08/22 09:44:23;;;;;;;10.95;4.45;;;25.20;83.40;;;;;;4956318;28;20039;-81
2023/08/22 09:46:51;;;;;;;10.85;4.50;;;25.10;84.50;;;;;;4951686;28;20114;-91
2023/08/22 09:49:16;;;;;;;11.23;4.75;;;25.10;84.00;;;;;;4952073;28;20023;-89
2023/08/22 09:51:48;;;;;;;10.57;4.28;;;25.20;83.70;;;;;;4951541;28;20067;-90
2023/08/22 09:54:17;;;;;;;8.65;4.20;;;25.40;82.20;;;;;;4951305;28;20082;-87
2023/08/22 09:56:43;;;;;;;8.80;4.78;;;25.50;82.50;;;;;;4941568;28;20035;-89
2023/08/22 09:59:15;;;;;;;10.40;4.72;;;25.50;81.70;;;;;;4950320;29;20106;-90
2023/08/22 10:01:42;;;;;;;11.35;4.68;;;25.50;82.00;;;;;;4948963;28;20118;-88
2023/08/22 10:04:08;;;;;;;8.00;4.35;;;25.70;81.10;;;;;;4950208;28;20038;-90
2023/08/22 10:06:36;;;;;;;9.40;4.93;;;25.80;81.00;;;;;;4946873;28;20123;-94
2023/08/22 10:09:11;;;;;;;7.72;4.75;;;25.90;80.20;;;;;;4947513;28;20035;-92
2023/08/22 10:11:51;;;;;;;10.18;5.15;;;25.90;80.50;;;;;;4946418;28;20039;-84
2023/08/22 10:14:31;;;;;;;8.38;4.60;;;26.10;79.60;;;;;;4944910;28;20038;-91
2023/08/22 10:16:58;;;;;;;8.05;4.60;;;26.30;79.40;;;;;;4946029;28;20066;-88
2023/08/22 10:19:25;;;;;;;14.50;5.72;;;26.60;79.30;;;;;;4947890;28;20024;-85
2023/08/22 10:21:53;;;;;;;10.77;5.25;;;26.70;78.10;;;;;;4948871;28;20031;-87
2023/08/22 10:24:39;;;;;;;10.40;5.15;;;26.70;79.50;;;;;;4944561;28;20090;-86
2023/08/22 10:27:05;;;;;;;7.18;4.90;;;27.30;77.30;;;;;;4946293;28;20039;-83
2023/08/22 10:29:35;;;;;;;13.30;5.60;;;27.60;76.10;;;;;;4948373;28;20035;-88
2023/08/22 10:32:01;;;;;;;12.15;6.25;;;28.00;76.50;;;;;;4950894;28;20051;-88
2023/08/22 10:34:41;;;;;;;16.58;5.68;;;27.70;75.60;;;;;;4948226;28;20027;-83
2023/08/22 10:37:16;;;;;;;9.10;5.90;;;27.50;75.90;;;;;;4949680;28;20027;-90
2023/08/22 10:39:46;;;;;;;151.13;72.82;;;27.10;76.30;;;;;;4950355;28;20121;-92
2023/08/22 10:42:23;;;;;;;173.20;85.13;;;26.80;76.90;;;;;;4947353;28;20054;-91
2023/08/22 10:44:55;;;;;;;28.15;11.95;;;26.60;78.40;;;;;;4947994;28;20038;-85
2023/08/22 10:47:32;;;;;;;7.73;5.67;;;26.50;79.80;;;;;;4939631;28;20043;-90
2023/08/22 10:50:00;;;;;;;11.85;6.60;;;26.30;80.20;;;;;;4966924;28;20106;-90
2023/08/22 10:52:36;;;;;;;15.52;7.07;;;26.20;80.10;;;;;;4948377;28;20035;-86
2023/08/22 10:55:13;;;;;;;11.23;6.85;;;26.40;79.60;;;;;;4948417;28;20046;-90
2023/08/22 10:57:45;;;;;;;12.57;7.57;;;26.40;80.20;;;;;;4944418;28;20035;-90
2023/08/22 11:00:21;;;;;;;10.68;7.47;;;26.40;79.50;;;;;;4950002;28;20032;-89
2023/08/22 11:02:57;;;;;;;13.70;7.32;;;26.50;79.30;;;;;;4964309;28;20028;-88
2023/08/22 11:05:23;;;;;;;13.27;7.13;;;26.40;79.80;;;;;;4963271;28;20064;-88
2023/08/22 11:07:50;;;;;;;15.05;7.18;;;26.50;79.70;;;;;;4941864;28;20086;-90
2023/08/22 11:10:25;;;;;;;14.50;6.93;;;26.20;79.80;;;;;;4949928;28;20023;-91
2023/08/22 11:12:54;;;;;;;16.85;8.30;;;26.40;79.20;;;;;;4944083;28;20031;-83
2023/08/22 11:15:20;;;;;;;157.50;80.85;;;26.40;79.80;;;;;;4948494;28;20027;-90
2023/08/22 11:17:47;;;;;;;16.45;9.57;;;26.50;80.70;;;;;;4948647;28;20453;-84
2023/08/22 11:20:14;;;;;;;15.52;6.85;;;26.50;81.10;;;;;;4953873;28;20019;-89
2023/08/22 11:22:45;;;;;;;17.13;7.80;;;26.60;79.70;;;;;;4950580;28;20559;-90
2023/08/22 11:25:11;;;;;;;15.48;6.38;;;26.60;79.00;;;;;;4947520;28;20047;-90
2023/08/22 11:27:41;;;;;;;14.43;6.72;;;26.50;78.30;;;;;;4943894;28;20027;-91
2023/08/22 11:30:08;;;;;;;19.13;6.75;;;26.20;79.10;;;;;;4946675;28;20033;-91
2023/08/22 11:32:36;;;;;;;16.60;7.55;;;26.20;79.70;;;;;;4953316;28;20034;-89
2023/08/22 11:35:07;;;;;;;8.73;6.15;;;26.50;80.50;;;;;;4944151;28;20114;-91
2023/08/22 11:37:40;;;;;;;13.05;6.70;;;26.70;77.90;;;;;;4939343;28;20031;-90
2023/08/22 11:40:12;;;;;;;21.63;7.72;;;26.90;78.70;;;;;;4944735;28;20805;-93
2023/08/22 11:42:39;;;;;;;;;;;27.00;76.00;;;;;;4946924;28;20044;-93
2023/08/22 11:45:09;;;;;;;16.35;7.03;;;26.80;75.60;;;;;;4941721;28;20013;-90
2023/08/22 11:47:41;;;;;;;10.07;7.00;;;26.60;77.00;;;;;;4944751;28;20035;-90
2023/08/22 11:50:24;;;;;;;12.43;7.20;;;26.80;77.10;;;;;;4947067;28;20415;-87
2023/08/22 11:52:53;;;;;;;13.05;7.55;;;26.80;77.00;;;;;;4959985;28;20110;-88
2023/08/22 11:55:26;;;;;;;12.45;7.97;;;26.80;78.90;;;;;;4946402;28;20038;-89
2023/08/22 11:58:00;;;;;;;17.42;6.68;;;27.30;76.50;;;;;;4959093;28;20494;-88
2023/08/22 12:00:27;;;;;;;10.55;5.57;;;27.60;76.40;;;;;;4945069;28;20027;-88
2023/08/22 12:02:56;;;;;;;20.83;7.40;;;27.70;74.80;;;;;;4943249;28;20033;-88
2023/08/22 12:05:31;;;;;;;13.93;7.10;;;27.60;74.70;;;;;;4958107;28;20081;-90
2023/08/22 12:08:15;;;;;;;13.98;6.47;;;27.30;76.50;;;;;;4941750;28;20439;-89
2023/08/22 12:10:41;;;;;;;13.60;6.93;;;27.10;76.10;;;;;;4957283;28;20554;-90
2023/08/22 12:13:11;;;;;;;13.20;7.38;;;26.80;76.70;;;;;;4946145;28;20082;-90
2023/08/22 12:15:38;;;;;;;15.40;7.40;;;26.80;76.90;;;;;;4944414;28;20028;-92
2023/08/22 12:18:04;;;;;;;14.10;8.07;;;26.70;77.30;;;;;;4946887;28;20030;-90
2023/08/22 12:20:30;;;;;;;12.27;8.23;;;26.80;77.90;;;;;;4947497;28;20051;-90
2023/08/22 12:22:56;;;;;;;14.20;7.75;;;26.90;77.70;;;;;;4940760;28;20559;-90
2023/08/22 12:25:22;;;;;;;16.05;7.60;;;26.80;78.30;;;;;;4943708;28;20118;-85
2023/08/22 12:27:47;;;;;;;14.93;7.72;;;26.90;80.60;;;;;;4939031;28;20051;-85
2023/08/22 12:30:15;;;;;;;15.63;8.77;;;26.90;79.00;;;;;;4942168;28;20090;-85
2023/08/22 12:32:45;;;;;;;12.98;8.20;;;27.00;75.60;;;;;;4957034;28;20447;-85
2023/08/22 12:35:13;;;;;;;14.98;9.05;;;26.90;76.10;;;;;;4942001;28;20034;-85
2023/08/22 12:37:42;;;;;;;18.13;8.43;;;26.60;75.50;;;;;;4940348;28;20035;-85
2023/08/22 12:40:10;;;;;;;14.80;8.70;;;26.50;76.10;;;;;;4942420;28;20365;-93
2023/08/22 12:43:19;;;;;;;20.35;9.05;;;26.40;77.00;;;;;;4948074;28;20129;-95
2023/08/22 12:46:13;;;;;;;13.40;8.25;;;26.20;77.50;;;;;;4926915;28;20035;-94